createdAt,value
2023-10-08T00:00:32.849Z,59.38
2023-10-08T00:05:42.051Z,59.41
2023-10-08T00:10:50.118Z,59.16
2023-10-08T00:15:58.543Z,59.14
2023-10-08T00:21:18.090Z,59.39
2023-10-08T00:26:29.558Z,59.63
2023-10-08T00:31:42.433Z,59.39
2023-10-08T00:36:51.099Z,59.38
2023-10-08T00:42:01.507Z,59.54
2023-10-08T00:47:12.573Z,59.67
2023-10-08T00:52:31.679Z,59.65
2023-10-08T00:57:44.363Z,59.89
2023-10-08T01:02:57.300Z,60.01
2023-10-08T01:08:08.190Z,59.94
2023-10-08T01:13:22.557Z,60.22
2023-10-08T01:18:34.279Z,60.08
2023-10-08T01:23:41.697Z,60.13
2023-10-08T01:28:49.610Z,60.41
2023-10-08T01:33:58.505Z,60.36
2023-10-08T01:39:08.335Z,60.58
2023-10-08T01:44:15.752Z,60.60
2023-10-08T01:49:26.691Z,60.33
2023-10-08T01:54:37.607Z,60.45
2023-10-08T01:59:45.719Z,60.42
2023-10-08T02:04:53.948Z,60.51
2023-10-08T02:10:01.430Z,60.47
2023-10-08T02:15:12.902Z,60.38
2023-10-08T02:20:20.928Z,60.67
2023-10-08T02:25:29.244Z,60.74
2023-10-08T02:30:37.978Z,60.58
2023-10-08T02:35:46.141Z,60.55
2023-10-08T02:40:58.576Z,60.80
2023-10-08T02:46:08.667Z,61.00
2023-10-08T02:51:16.576Z,60.83
2023-10-08T02:56:25.352Z,60.63
2023-10-08T03:01:35.842Z,61.06
2023-10-08T03:06:44.177Z,61.06
2023-10-08T03:11:52.135Z,61.46
2023-10-08T03:17:09.480Z,61.27
2023-10-08T03:22:21.085Z,61.17
2023-10-08T03:27:28.448Z,60.99
2023-10-08T03:32:37.236Z,60.67
2023-10-08T03:37:48.648Z,60.55
2023-10-08T03:42:59.021Z,60.68
2023-10-08T03:48:12.405Z,60.50
2023-10-08T03:53:20.168Z,60.48
2023-10-08T03:58:31.602Z,60.40
2023-10-08T04:03:59.723Z,60.28
2023-10-08T04:09:18.116Z,60.09
2023-10-08T04:14:29.225Z,59.95
2023-10-08T04:19:37.499Z,60.19
2023-10-08T04:24:45.599Z,60.05
2023-10-08T04:29:53.426Z,60.09
2023-10-08T04:35:02.258Z,60.12
2023-10-08T04:40:18.044Z,60.22
2023-10-08T04:45:28.193Z,60.20
2023-10-08T04:50:38.381Z,60.44
2023-10-08T04:55:50.330Z,60.56
2023-10-08T05:01:01.761Z,60.09
2023-10-08T05:06:15.877Z,60.08
2023-10-08T05:11:48.285Z,60.00
2023-10-08T05:17:02.424Z,59.92
2023-10-08T05:22:35.844Z,60.06
2023-10-08T05:27:59.644Z,59.95
2023-10-08T05:33:27.758Z,59.58
2023-10-08T05:38:50.895Z,59.53
2023-10-08T05:44:16.034Z,59.84
2023-10-08T05:49:41.063Z,59.57
2023-10-08T05:55:11.766Z,59.31
2023-10-08T06:00:48.594Z,59.59
2023-10-08T06:06:16.190Z,59.25
2023-10-08T06:11:43.499Z,59.41
2023-10-08T06:17:03.800Z,59.21
2023-10-08T06:22:11.368Z,59.23
2023-10-08T06:27:21.633Z,59.33
2023-10-08T06:32:32.103Z,59.34
2023-10-08T06:37:40.256Z,59.61
2023-10-08T06:42:53.398Z,59.77
2023-10-08T06:48:07.802Z,59.45
2023-10-08T06:53:16.636Z,59.82
2023-10-08T06:58:24.864Z,59.62
2023-10-08T07:03:33.144Z,59.72
2023-10-08T07:08:42.733Z,59.39
2023-10-08T07:13:52.001Z,59.41
2023-10-08T07:19:04.496Z,59.50
2023-10-08T07:24:17.130Z,59.27
2023-10-08T07:29:26.868Z,59.29
2023-10-08T07:34:34.890Z,58.98
2023-10-08T07:39:48.769Z,59.18
2023-10-08T07:44:57.177Z,59.36
2023-10-08T07:50:13.556Z,58.87
2023-10-08T07:55:22.286Z,58.50
2023-10-08T08:00:32.418Z,58.22
2023-10-08T08:05:42.215Z,58.05
2023-10-08T08:10:49.959Z,57.85
2023-10-08T08:15:59.988Z,57.42
2023-10-08T08:21:15.815Z,57.23
2023-10-08T08:26:31.708Z,56.82
2023-10-08T08:31:39.248Z,56.42
2023-10-08T08:36:50.353Z,56.47
2023-10-08T08:42:01.918Z,56.43
2023-10-08T08:47:12.701Z,55.79
2023-10-08T08:52:20.423Z,55.35
2023-10-08T08:57:28.537Z,54.26
2023-10-08T09:02:36.748Z,53.53
2023-10-08T09:07:58.012Z,53.36
2023-10-08T09:13:06.774Z,52.73
2023-10-08T09:18:15.775Z,52.89
2023-10-08T09:23:24.924Z,52.53
2023-10-08T09:28:34.421Z,51.94
2023-10-08T09:33:43.086Z,51.11
2023-10-08T09:38:51.711Z,50.77
2023-10-08T09:44:01.552Z,50.62
2023-10-08T09:49:13.336Z,49.99
2023-10-08T09:54:27.206Z,50.42
2023-10-08T09:59:35.432Z,49.47
2023-10-08T10:04:47.585Z,48.90
2023-10-08T10:09:55.094Z,48.67
2023-10-08T10:15:05.873Z,47.96
2023-10-08T10:20:16.928Z,48.83
2023-10-08T10:25:44.581Z,48.70
2023-10-08T10:30:53.645Z,48.17
2023-10-08T10:36:03.597Z,47.22
2023-10-08T10:41:11.311Z,46.69
2023-10-08T10:46:32.852Z,46.68
2023-10-08T10:51:43.296Z,46.02
2023-10-08T10:57:05.273Z,46.14
2023-10-08T11:02:22.968Z,45.69
2023-10-08T11:07:31.095Z,45.67
2023-10-08T11:12:48.729Z,45.64
2023-10-08T11:17:57.657Z,45.37
2023-10-08T11:23:19.810Z,45.31
2023-10-08T11:28:29.298Z,45.28
2023-10-08T11:33:40.643Z,45.52
2023-10-08T11:38:52.293Z,45.93
2023-10-08T11:44:01.160Z,45.84
2023-10-08T11:49:13.458Z,45.51
2023-10-08T11:54:21.935Z,45.07
2023-10-08T11:59:31.555Z,44.37
2023-10-08T12:04:39.186Z,45.00
2023-10-08T12:09:50.189Z,44.60
2023-10-08T12:14:57.935Z,44.48
2023-10-08T12:20:14.193Z,44.60
2023-10-08T12:25:22.553Z,44.83
2023-10-08T12:30:32.445Z,44.90
2023-10-08T12:35:40.178Z,45.01
2023-10-08T12:40:57.809Z,44.72
2023-10-08T12:46:05.417Z,44.55
2023-10-08T12:51:13.279Z,45.20
2023-10-08T12:56:33.427Z,45.48
2023-10-08T13:01:42.928Z,45.62
2023-10-08T13:06:52.589Z,45.80
2023-10-08T13:12:01.563Z,46.30
2023-10-08T13:17:12.371Z,47.76
2023-10-08T13:22:21.748Z,48.37
2023-10-08T13:27:29.833Z,48.91
2023-10-08T13:32:37.956Z,49.15
2023-10-08T13:37:45.943Z,49.53
2023-10-08T13:42:54.432Z,49.87
2023-10-08T13:48:03.672Z,50.02
2023-10-08T13:53:14.988Z,49.85
2023-10-08T13:58:23.980Z,49.09
2023-10-08T14:03:33.006Z,48.63
2023-10-08T14:08:40.965Z,47.70
2023-10-08T14:13:50.236Z,47.76
2023-10-08T14:19:01.255Z,47.88
2023-10-08T14:24:17.228Z,47.76
2023-10-08T14:29:28.800Z,47.35
2023-10-08T14:34:50.588Z,47.49
2023-10-08T14:40:16.486Z,47.09
2023-10-08T14:45:27.733Z,45.65
2023-10-08T14:50:35.429Z,45.92
2023-10-08T14:55:43.349Z,45.77
2023-10-08T15:00:54.017Z,45.68
2023-10-08T15:06:04.725Z,46.11
2023-10-08T15:11:12.476Z,46.51
2023-10-08T15:16:22.383Z,46.71
2023-10-08T15:21:31.757Z,46.86
2023-10-08T15:26:39.477Z,46.90
2023-10-08T15:31:47.671Z,47.06
2023-10-08T15:36:55.705Z,46.98
2023-10-08T15:42:03.329Z,47.00
2023-10-08T15:47:11.100Z,46.90
2023-10-08T15:52:18.948Z,47.59
2023-10-08T15:57:26.746Z,47.76
2023-10-08T16:02:36.003Z,48.07
2023-10-08T16:07:44.436Z,48.57
2023-10-08T16:12:52.458Z,49.09
2023-10-08T16:18:00.554Z,49.34
2023-10-08T16:23:08.708Z,49.45
2023-10-08T16:28:20.536Z,49.20
2023-10-08T16:33:31.680Z,49.55
2023-10-08T16:38:40.402Z,50.00
2023-10-08T16:43:48.494Z,50.25
2023-10-08T16:48:57.088Z,50.32
2023-10-08T16:54:05.877Z,50.72
2023-10-08T16:59:16.168Z,50.85
2023-10-08T17:04:24.557Z,51.13
2023-10-08T17:09:31.899Z,51.22
2023-10-08T17:14:41.405Z,51.63
2023-10-08T17:19:50.951Z,51.58
2023-10-08T17:24:59.589Z,52.01
2023-10-08T17:30:09.897Z,52.25
2023-10-08T17:35:19.989Z,52.44
2023-10-08T17:40:28.399Z,52.77
2023-10-08T17:45:37.455Z,52.99
2023-10-08T17:50:45.388Z,53.12
2023-10-08T17:55:55.777Z,53.36
2023-10-08T18:01:08.351Z,53.70
2023-10-08T18:06:18.470Z,54.00
2023-10-08T18:11:28.058Z,54.21
2023-10-08T18:16:35.814Z,54.57
2023-10-08T18:21:45.590Z,54.97
2023-10-08T18:26:53.287Z,55.25
2023-10-08T18:32:03.283Z,55.53
2023-10-08T18:37:11.455Z,55.49
2023-10-08T18:42:20.571Z,55.62
2023-10-08T18:47:29.635Z,55.82
2023-10-08T18:52:37.877Z,55.70
2023-10-08T18:57:47.284Z,55.79
2023-10-08T19:02:56.954Z,55.89
2023-10-08T19:08:05.752Z,56.13
2023-10-08T19:13:14.035Z,56.22
2023-10-08T19:18:24.059Z,56.46
2023-10-08T19:23:32.256Z,56.51
2023-10-08T19:28:40.388Z,56.82
2023-10-08T19:33:48.574Z,56.97
2023-10-08T19:38:56.943Z,57.20
2023-10-08T19:44:06.402Z,57.24
2023-10-08T19:49:15.793Z,57.25
2023-10-08T19:54:23.740Z,57.31
2023-10-08T19:59:32.432Z,57.68
2023-10-08T20:04:40.621Z,57.74
2023-10-08T20:09:49.636Z,58.04
2023-10-08T20:14:59.206Z,58.34
2023-10-08T20:20:13.979Z,58.51
2023-10-08T20:25:26.602Z,58.24
2023-10-08T20:30:35.876Z,58.39
2023-10-08T20:35:44.755Z,58.73
2023-10-08T20:40:52.811Z,59.57
2023-10-08T20:46:02.148Z,59.15
2023-10-08T20:51:12.405Z,59.52
2023-10-08T20:56:19.921Z,59.65
2023-10-08T21:01:29.506Z,59.87
2023-10-08T21:06:37.897Z,59.86
2023-10-08T21:11:48.027Z,60.03
2023-10-08T21:16:56.608Z,59.83
2023-10-08T21:22:04.988Z,59.66
2023-10-08T21:27:12.843Z,59.94
2023-10-08T21:32:20.809Z,60.07
2023-10-08T21:37:29.210Z,60.13
2023-10-08T21:42:37.088Z,60.52
2023-10-08T21:47:46.196Z,60.12
2023-10-08T21:52:55.022Z,60.23
2023-10-08T21:58:04.646Z,60.24
2023-10-08T22:03:13.164Z,60.30
2023-10-08T22:08:24.730Z,60.57
2023-10-08T22:13:33.301Z,61.19
2023-10-08T22:18:46.413Z,61.22
2023-10-08T22:23:54.631Z,61.67
2023-10-08T22:29:02.620Z,61.92
2023-10-08T22:34:17.587Z,61.87
2023-10-08T22:39:25.201Z,62.56
2023-10-08T22:44:33.442Z,62.54
2023-10-08T22:49:42.254Z,62.25
2023-10-08T22:54:50.490Z,62.58
2023-10-08T22:59:57.898Z,62.73
2023-10-08T23:05:08.136Z,62.49
2023-10-08T23:10:16.430Z,62.61
2023-10-08T23:15:24.698Z,62.66
2023-10-08T23:20:32.650Z,62.81
2023-10-08T23:25:41.688Z,62.77
2023-10-08T23:30:49.514Z,62.81
2023-10-08T23:35:56.980Z,62.70
2023-10-08T23:41:14.436Z,63.27
2023-10-08T23:46:24.112Z,63.65
2023-10-08T23:51:34.158Z,63.85
2023-10-08T23:56:46.737Z,64.01
